createdAt,value
2022-11-26T00:01:35.326Z,99204.23
2022-11-26T00:06:39.865Z,99206.94
2022-11-26T00:11:42.661Z,99208.10
2022-11-26T00:16:44.713Z,99216.58
2022-11-26T00:21:45.975Z,99221.38
2022-11-26T00:26:47.123Z,99231.05
2022-11-26T00:31:49.727Z,99230.05
2022-11-26T00:36:50.908Z,99233.06
2022-11-26T00:41:52.806Z,99231.83
2022-11-26T00:46:53.897Z,99236.26
2022-11-26T00:51:55.122Z,99241.72
2022-11-26T00:56:56.385Z,99242.88
2022-11-26T01:01:57.583Z,99246.26
2022-11-26T01:06:58.805Z,99251.19
2022-11-26T01:11:59.880Z,99255.67
2022-11-26T01:17:00.998Z,99256.99
2022-11-26T01:22:02.291Z,99262.02
2022-11-26T01:27:10.558Z,99266.23
2022-11-26T01:32:11.782Z,99271.55
2022-11-26T01:37:13.765Z,99269.70
2022-11-26T01:42:31.920Z,99273.58
2022-11-26T01:47:33.027Z,99277.26
2022-11-26T01:52:34.237Z,99283.16
2022-11-26T01:57:38.172Z,99286.86
2022-11-26T02:02:40.741Z,99286.44
2022-11-26T02:07:42.111Z,99291.83
2022-11-26T02:12:44.009Z,99295.13
2022-11-26T02:17:55.482Z,99290.89
2022-11-26T02:23:34.764Z,99294.40
2022-11-26T02:29:13.003Z,99292.91
2022-11-26T02:34:47.360Z,99289.63
2022-11-26T02:39:48.486Z,99286.87
2022-11-26T02:44:49.804Z,99291.16
2022-11-26T02:49:52.707Z,99292.80
2022-11-26T02:54:55.050Z,99293.59
2022-11-26T02:59:56.817Z,99299.80
2022-11-26T03:05:00.971Z,99298.50
2022-11-26T03:10:02.415Z,99303.48
2022-11-26T03:15:04.185Z,99303.77
2022-11-26T03:20:06.675Z,99301.71
2022-11-26T03:25:08.862Z,99304.17
2022-11-26T03:30:10.506Z,99308.17
2022-11-26T03:35:11.702Z,99313.95
2022-11-26T03:40:13.367Z,99314.38
2022-11-26T03:45:14.480Z,99311.65
2022-11-26T03:50:15.688Z,99307.41
2022-11-26T03:55:17.262Z,99308.15
2022-11-26T04:00:19.037Z,99310.52
2022-11-26T04:05:20.103Z,99317.27
2022-11-26T04:10:21.463Z,99313.44
2022-11-26T04:15:22.619Z,99319.55
2022-11-26T04:20:23.780Z,99328.34
2022-11-26T04:25:25.660Z,99334.91
2022-11-26T04:30:29.842Z,99338.45
2022-11-26T04:35:31.256Z,99343.20
2022-11-26T04:40:32.722Z,99351.81
2022-11-26T04:45:33.846Z,99355.61
2022-11-26T04:50:35.249Z,99358.27
2022-11-26T04:55:36.819Z,99363.08
2022-11-26T05:00:39.355Z,99368.77
2022-11-26T05:05:41.286Z,99370.38
2022-11-26T05:10:42.382Z,99367.98
2022-11-26T05:15:43.513Z,99370.52
2022-11-26T05:20:44.608Z,99373.67
2022-11-26T05:25:45.799Z,99381.33
2022-11-26T05:30:46.889Z,99384.61
2022-11-26T05:35:48.174Z,99382.92
2022-11-26T05:40:50.127Z,99387.08
2022-11-26T05:45:55.364Z,99392.11
2022-11-26T05:50:58.286Z,99405.33
2022-11-26T05:55:59.381Z,99409.14
2022-11-26T06:01:00.505Z,99414.88
2022-11-26T06:06:02.486Z,99420.70
2022-11-26T06:11:03.647Z,99423.70
2022-11-26T06:16:05.368Z,99429.94
2022-11-26T06:21:06.988Z,99434.08
2022-11-26T06:26:12.086Z,99436.22
2022-11-26T06:31:13.534Z,99447.27
2022-11-26T06:36:14.791Z,99446.85
2022-11-26T06:41:16.491Z,99453.27
2022-11-26T06:46:17.986Z,99458.16
2022-11-26T06:51:21.205Z,99465.63
2022-11-26T06:56:22.490Z,99468.89
2022-11-26T07:01:26.008Z,99472.48
2022-11-26T07:06:32.282Z,99477.98
2022-11-26T07:11:34.695Z,99481.02
2022-11-26T07:16:36.231Z,99483.10
2022-11-26T07:21:37.404Z,99483.88
2022-11-26T07:26:38.562Z,99484.92
2022-11-26T07:31:39.675Z,99489.02
2022-11-26T07:36:42.946Z,99494.35
2022-11-26T07:41:44.058Z,99496.24
2022-11-26T07:46:45.285Z,99496.60
2022-11-26T07:51:46.410Z,99504.15
2022-11-26T07:56:47.510Z,99508.65
2022-11-26T08:01:48.801Z,99512.15
2022-11-26T08:06:49.987Z,99517.76
2022-11-26T08:11:51.164Z,99523.70
2022-11-26T08:16:52.413Z,99527.89
2022-11-26T08:21:53.632Z,99532.20
2022-11-26T08:26:55.054Z,99533.55
2022-11-26T08:31:56.244Z,99535.61
2022-11-26T08:36:57.373Z,99535.96
2022-11-26T08:41:58.436Z,99541.48
2022-11-26T08:46:59.590Z,99549.48
2022-11-26T08:52:00.774Z,99549.34
2022-11-26T08:57:02.114Z,99551.13
2022-11-26T09:02:03.272Z,99554.34
2022-11-26T09:07:04.377Z,99558.65
2022-11-26T09:12:06.051Z,99559.08
2022-11-26T09:17:09.416Z,99566.37
2022-11-26T09:22:10.684Z,99565.92
2022-11-26T09:27:11.775Z,99570.17
2022-11-26T09:32:24.295Z,99575.93
2022-11-26T09:37:30.140Z,99574.44
2022-11-26T09:42:46.631Z,99573.43
2022-11-26T09:47:52.839Z,99574.72
2022-11-26T09:53:08.460Z,99578.60
2022-11-26T09:58:31.510Z,99581.73
2022-11-26T10:03:35.129Z,99579.29
2022-11-26T10:08:58.281Z,99578.44
2022-11-26T10:14:21.573Z,99581.50
2022-11-26T10:20:08.417Z,99588.33
2022-11-26T10:25:18.926Z,99589.89
2022-11-26T10:30:28.787Z,99585.67
2022-11-26T10:35:30.020Z,99584.77
2022-11-26T10:40:31.976Z,99585.54
2022-11-26T10:45:42.528Z,99583.35
2022-11-26T10:50:57.201Z,99580.69
2022-11-26T10:56:00.981Z,99582.96
2022-11-26T11:01:03.835Z,99584.77
2022-11-26T11:06:20.224Z,99588.86
2022-11-26T11:11:23.099Z,99581.36
2022-11-26T11:16:37.115Z,99582.00
2022-11-26T11:21:41.593Z,99586.29
2022-11-26T11:26:49.162Z,99581.73
2022-11-26T11:31:50.432Z,99586.94
2022-11-26T11:37:01.543Z,99588.58
2022-11-26T11:42:07.030Z,99589.23
2022-11-26T11:47:29.733Z,99588.88
2022-11-26T11:52:39.964Z,99589.19
2022-11-26T11:57:53.379Z,99597.96
2022-11-26T12:03:22.751Z,99602.27
2022-11-26T12:08:29.870Z,99598.58
2022-11-26T12:13:43.230Z,99606.05
2022-11-26T12:18:55.812Z,99609.77
2022-11-26T12:24:03.470Z,99615.30
2022-11-26T12:29:14.113Z,99609.73
2022-11-26T12:34:31.758Z,99610.48
2022-11-26T12:39:53.320Z,99607.05
2022-11-26T12:45:02.406Z,99610.92
2022-11-26T12:50:03.603Z,99614.05
2022-11-26T12:55:16.439Z,99615.89
2022-11-26T13:00:25.289Z,99613.88
2022-11-26T13:05:54.825Z,99613.54
2022-11-26T13:11:26.786Z,99612.56
2022-11-26T13:16:34.361Z,99617.90
2022-11-26T13:21:38.598Z,99619.28
2022-11-26T13:26:58.066Z,99621.68
2022-11-26T13:32:09.790Z,99632.09
2022-11-26T13:37:38.922Z,99634.19
2022-11-26T13:43:39.084Z,99638.16
2022-11-26T13:48:49.419Z,99638.45
2022-11-26T13:54:05.264Z,99635.63
2022-11-26T13:59:33.565Z,99637.84
2022-11-26T14:04:34.619Z,99643.26
2022-11-26T14:09:41.726Z,99648.73
2022-11-26T14:14:45.484Z,99652.45
2022-11-26T14:19:51.417Z,99647.36
2022-11-26T14:24:56.876Z,99653.84
2022-11-26T14:30:06.950Z,99651.67
2022-11-26T14:35:34.639Z,99656.65
2022-11-26T14:40:37.849Z,99662.99
2022-11-26T14:45:39.564Z,99663.45
2022-11-26T14:50:41.327Z,99666.94
2022-11-26T14:55:44.392Z,99672.98
2022-11-26T15:01:02.637Z,99678.71
2022-11-26T15:06:04.123Z,99684.70
2022-11-26T15:11:07.223Z,99691.47
2022-11-26T15:16:35.473Z,99693.74
2022-11-26T15:21:40.135Z,99690.93
2022-11-26T15:26:46.646Z,99690.21
2022-11-26T15:31:47.808Z,99694.35
2022-11-26T15:36:48.989Z,99702.42
2022-11-26T15:41:50.961Z,99707.09
2022-11-26T15:46:54.920Z,99709.21
2022-11-26T15:51:58.053Z,99714.95
2022-11-26T15:57:08.098Z,99723.23
2022-11-26T16:02:18.882Z,99728.77
2022-11-26T16:07:23.116Z,99728.98
2022-11-26T16:12:25.790Z,99732.08
2022-11-26T16:17:26.917Z,99738.88
2022-11-26T16:22:32.752Z,99736.57
2022-11-26T16:27:33.908Z,99733.18
2022-11-26T16:32:35.023Z,99739.35
2022-11-26T16:37:43.444Z,99744.45
2022-11-26T16:42:45.664Z,99764.41
2022-11-26T16:47:50.884Z,99775.36
2022-11-26T16:52:53.175Z,99784.17
2022-11-26T16:57:57.508Z,99789.05
2022-11-26T17:02:58.736Z,99791.92
2022-11-26T17:08:01.815Z,99805.59
2022-11-26T17:13:03.246Z,99806.16
2022-11-26T17:18:12.086Z,99810.82
2022-11-26T17:23:13.799Z,99816.37
2022-11-26T17:28:15.328Z,99819.88
2022-11-26T17:33:16.898Z,99822.11
2022-11-26T17:38:20.616Z,99826.89
2022-11-26T17:43:21.679Z,99833.76
2022-11-26T17:48:26.572Z,99835.86
2022-11-26T17:53:27.929Z,99837.38
2022-11-26T17:58:29.051Z,99845.61
2022-11-26T18:03:30.417Z,99851.06
2022-11-26T18:08:31.880Z,99860.73
2022-11-26T18:13:33.142Z,99867.39
2022-11-26T18:18:34.216Z,99868.21
2022-11-26T18:23:35.373Z,99870.21
2022-11-26T18:28:36.634Z,99867.24
2022-11-26T18:33:37.793Z,99861.45
2022-11-26T18:38:39.395Z,99866.16
2022-11-26T18:43:40.828Z,99871.83
2022-11-26T18:48:44.033Z,99874.43
2022-11-26T18:53:45.297Z,99872.88
2022-11-26T18:58:46.669Z,99881.52
2022-11-26T19:03:48.537Z,99884.58
2022-11-26T19:08:50.799Z,99882.58
2022-11-26T19:13:51.983Z,99886.58
2022-11-26T19:18:53.512Z,99885.59
2022-11-26T19:23:56.411Z,99886.16
2022-11-26T19:29:05.157Z,99890.95
2022-11-26T19:34:11.601Z,99892.31
2022-11-26T19:39:13.257Z,99893.81
2022-11-26T19:44:14.410Z,99899.64
2022-11-26T19:49:15.573Z,99907.84
2022-11-26T19:54:17.244Z,99912.17
2022-11-26T19:59:21.186Z,99912.20
2022-11-26T20:04:22.318Z,99916.86
2022-11-26T20:09:23.489Z,99923.73
2022-11-26T20:14:24.652Z,99923.84
2022-11-26T20:19:25.740Z,99927.59
2022-11-26T20:24:27.015Z,99932.15
2022-11-26T20:29:28.237Z,99934.84
2022-11-26T20:34:30.374Z,99936.62
2022-11-26T20:39:32.446Z,99935.58
2022-11-26T20:44:34.180Z,99933.80
2022-11-26T20:49:41.403Z,99938.05
2022-11-26T20:54:45.170Z,99942.19
2022-11-26T20:59:47.698Z,99944.86
2022-11-26T21:04:48.755Z,99947.83
2022-11-26T21:09:50.321Z,99949.38
2022-11-26T21:14:51.580Z,99946.34
2022-11-26T21:19:52.640Z,99950.38
2022-11-26T21:24:53.803Z,99952.66
2022-11-26T21:29:55.099Z,99949.61
2022-11-26T21:34:56.192Z,99951.39
2022-11-26T21:39:57.375Z,99951.30
2022-11-26T21:44:58.541Z,99953.50
2022-11-26T21:49:59.613Z,99950.94
2022-11-26T21:55:03.618Z,99951.80
2022-11-26T22:00:06.146Z,99950.88
2022-11-26T22:05:07.384Z,99955.19
2022-11-26T22:10:09.567Z,99959.37
2022-11-26T22:15:14.313Z,99959.66
2022-11-26T22:20:15.571Z,99960.63
2022-11-26T22:25:16.756Z,99962.44
2022-11-26T22:30:18.536Z,99969.31
2022-11-26T22:35:19.672Z,99967.48
2022-11-26T22:40:21.039Z,99973.00
2022-11-26T22:45:22.406Z,99972.14
2022-11-26T22:50:23.664Z,99971.70
2022-11-26T22:55:24.789Z,99970.27
2022-11-26T23:00:49.442Z,99967.84
2022-11-26T23:05:50.873Z,99965.19
2022-11-26T23:10:51.922Z,99964.15
2022-11-26T23:15:53.019Z,99968.73
2022-11-26T23:21:06.371Z,99969.83
2022-11-26T23:26:12.647Z,99969.21
2022-11-26T23:31:16.574Z,99973.40
2022-11-26T23:36:18.656Z,99968.99
2022-11-26T23:41:20.558Z,99967.70
2022-11-26T23:46:24.586Z,99965.91
2022-11-26T23:51:28.077Z,99959.47
2022-11-26T23:56:32.790Z,99957.51
